createdAt,value
2018-08-10T00:00:52.316Z,2.42
2018-08-10T00:03:19.465Z,1.87
2018-08-10T00:05:46.868Z,2.00
2018-08-10T00:08:14.112Z,2.02
2018-08-10T00:10:41.885Z,2.15
2018-08-10T00:13:09.572Z,2.10
2018-08-10T00:15:36.786Z,1.77
2018-08-10T00:18:04.578Z,2.08
2018-08-10T00:20:32.449Z,1.70
2018-08-10T00:22:59.821Z,2.05
2018-08-10T00:25:27.204Z,2.12
2018-08-10T00:27:55.296Z,2.25
2018-08-10T00:30:22.476Z,2.10
2018-08-10T00:32:50.437Z,2.00
2018-08-10T00:35:17.635Z,2.00
2018-08-10T00:37:46.568Z,2.00
2018-08-10T00:40:17.493Z,2.33
2018-08-10T00:42:45.295Z,1.80
2018-08-10T00:45:14.210Z,2.05
2018-08-10T00:47:42.652Z,2.25
2018-08-10T00:50:11.706Z,2.02
2018-08-10T00:52:39.865Z,1.87
2018-08-10T00:55:09.419Z,2.00
2018-08-10T00:57:36.876Z,2.27
2018-08-10T01:00:05.373Z,2.08
2018-08-10T01:02:33.008Z,1.90
2018-08-10T01:05:00.284Z,2.02
2018-08-10T01:07:27.720Z,2.30
2018-08-10T01:09:54.907Z,1.77
2018-08-10T01:12:23.269Z,1.87
2018-08-10T01:14:51.004Z,1.98
2018-08-10T01:17:18.177Z,1.77
2018-08-10T01:19:45.360Z,1.87
2018-08-10T01:22:13.330Z,1.92
2018-08-10T01:24:40.810Z,2.15
2018-08-10T01:27:15.790Z,1.87
2018-08-10T01:29:43.555Z,2.15
2018-08-10T01:32:11.005Z,1.57
2018-08-10T01:34:39.380Z,1.85
2018-08-10T01:37:06.788Z,1.72
2018-08-10T01:39:34.656Z,1.60
2018-08-10T01:42:01.916Z,1.75
2018-08-10T01:44:29.116Z,1.82
2018-08-10T01:46:57.081Z,1.62
2018-08-10T01:49:24.725Z,1.60
2018-08-10T01:51:52.576Z,1.40
2018-08-10T01:54:19.731Z,1.70
2018-08-10T01:56:47.234Z,1.70
2018-08-10T01:59:15.084Z,1.90
2018-08-10T02:01:42.344Z,1.50
2018-08-10T02:04:10.141Z,2.02
2018-08-10T02:06:37.589Z,1.85
2018-08-10T02:09:06.292Z,1.65
2018-08-10T02:11:33.817Z,1.70
2018-08-10T02:14:01.350Z,1.62
2018-08-10T02:16:28.520Z,1.40
2018-08-10T02:18:56.212Z,1.70
2018-08-10T02:21:23.990Z,1.65
2018-08-10T02:23:51.905Z,1.40
2018-08-10T02:26:19.047Z,1.32
2018-08-10T02:28:46.368Z,1.50
2018-08-10T02:31:14.283Z,1.30
2018-08-10T02:33:42.206Z,1.42
2018-08-10T02:36:09.748Z,1.40
2018-08-10T02:38:37.172Z,1.30
2018-08-10T02:41:04.648Z,1.55
2018-08-10T02:43:32.265Z,1.60
2018-08-10T02:45:59.451Z,1.40
2018-08-10T02:48:26.901Z,1.60
2018-08-10T02:50:54.253Z,1.57
2018-08-10T02:53:21.744Z,1.40
2018-08-10T02:55:49.497Z,1.50
2018-08-10T02:58:17.387Z,1.50
2018-08-10T03:00:45.640Z,1.40
2018-08-10T03:03:13.064Z,1.20
2018-08-10T03:05:41.176Z,1.20
2018-08-10T03:08:08.628Z,1.00
2018-08-10T03:10:36.561Z,1.10
2018-08-10T03:13:03.744Z,1.30
2018-08-10T03:15:32.024Z,1.30
2018-08-10T03:17:59.377Z,1.20
2018-08-10T03:20:26.564Z,1.00
2018-08-10T03:22:53.839Z,1.10
2018-08-10T03:25:21.013Z,1.25
2018-08-10T03:27:48.484Z,1.10
2018-08-10T03:30:15.953Z,1.10
2018-08-10T03:32:43.400Z,1.30
2018-08-10T03:35:11.132Z,0.90
2018-08-10T03:37:38.860Z,1.30
2018-08-10T03:40:08.750Z,1.20
2018-08-10T03:42:36.168Z,1.10
2018-08-10T03:45:04.249Z,1.10
2018-08-10T03:47:32.415Z,0.90
2018-08-10T03:49:59.763Z,1.15
2018-08-10T03:52:27.748Z,1.12
2018-08-10T03:54:55.224Z,1.20
2018-08-10T03:57:22.388Z,1.15
2018-08-10T03:59:50.325Z,1.00
2018-08-10T04:02:17.476Z,1.20
2018-08-10T04:04:45.056Z,1.00
2018-08-10T04:07:12.208Z,1.03
2018-08-10T04:09:39.570Z,1.10
2018-08-10T04:12:07.114Z,1.10
2018-08-10T04:14:36.196Z,1.03
2018-08-10T04:17:04.410Z,1.00
2018-08-10T04:19:31.583Z,1.30
2018-08-10T04:21:59.225Z,1.30
2018-08-10T04:24:27.049Z,1.20
2018-08-10T04:26:54.945Z,1.00
2018-08-10T04:29:22.435Z,1.00
2018-08-10T04:31:49.942Z,1.00
2018-08-10T04:34:19.484Z,1.10
2018-08-10T04:36:50.088Z,1.00
2018-08-10T04:39:17.201Z,1.17
2018-08-10T04:41:44.355Z,1.10
2018-08-10T04:44:11.826Z,1.22
2018-08-10T04:46:39.802Z,1.03
2018-08-10T04:49:08.368Z,1.10
2018-08-10T04:51:35.784Z,0.90
2018-08-10T04:54:03.180Z,1.10
2018-08-10T04:56:30.578Z,0.90
2018-08-10T04:58:58.197Z,1.10
2018-08-10T05:01:26.060Z,0.93
2018-08-10T05:03:53.994Z,1.10
2018-08-10T05:06:21.702Z,0.90
2018-08-10T05:08:49.968Z,1.10
2018-08-10T05:11:18.560Z,1.00
2018-08-10T05:13:45.708Z,0.90
2018-08-10T05:16:13.160Z,1.30
2018-08-10T05:18:40.527Z,0.90
2018-08-10T05:21:08.440Z,1.10
2018-08-10T05:23:36.968Z,1.00
2018-08-10T05:26:05.245Z,0.90
2018-08-10T05:28:33.116Z,1.10
2018-08-10T05:31:00.493Z,1.00
2018-08-10T05:33:27.940Z,0.97
2018-08-10T05:35:55.326Z,0.80
2018-08-10T05:38:23.656Z,0.70
2018-08-10T05:40:51.528Z,0.70
2018-08-10T05:43:18.747Z,0.70
2018-08-10T05:45:46.546Z,0.90
2018-08-10T05:48:14.404Z,0.60
2018-08-10T05:50:41.636Z,0.70
2018-08-10T05:53:09.048Z,1.10
2018-08-10T05:55:36.216Z,0.77
2018-08-10T05:58:04.295Z,0.60
2018-08-10T06:00:33.654Z,0.70
2018-08-10T06:03:02.880Z,0.80
2018-08-10T06:05:30.105Z,0.97
2018-08-10T06:07:58.826Z,0.97
2018-08-10T06:10:26.019Z,0.80
2018-08-10T06:12:53.134Z,0.70
2018-08-10T06:15:20.549Z,0.70
2018-08-10T06:17:49.616Z,0.73
2018-08-10T06:20:18.630Z,0.70
2018-08-10T06:22:46.112Z,0.73
2018-08-10T06:25:14.564Z,0.70
2018-08-10T06:27:42.078Z,0.70
2018-08-10T06:30:11.626Z,0.90
2018-08-10T06:32:39.834Z,0.50
2018-08-10T06:35:07.387Z,0.70
2018-08-10T06:37:36.690Z,0.83
2018-08-10T06:40:04.252Z,0.80
2018-08-10T06:42:31.757Z,0.77
2018-08-10T06:45:00.096Z,0.70
2018-08-10T06:47:27.764Z,0.67
2018-08-10T06:49:57.125Z,0.68
2018-08-10T06:52:24.416Z,0.60
2018-08-10T06:54:52.491Z,0.77
2018-08-10T06:57:20.801Z,0.67
2018-08-10T06:59:47.931Z,0.80
2018-08-10T07:02:15.069Z,0.80
2018-08-10T07:04:42.205Z,0.60
2018-08-10T07:07:14.009Z,0.72
2018-08-10T07:09:41.492Z,0.60
2018-08-10T07:12:08.944Z,0.60
2018-08-10T07:14:36.355Z,0.70
2018-08-10T07:17:03.633Z,0.80
2018-08-10T07:19:31.537Z,0.60
2018-08-10T07:21:58.908Z,0.70
2018-08-10T07:24:28.248Z,0.83
2018-08-10T07:26:55.736Z,0.60
2018-08-10T07:29:23.200Z,0.80
2018-08-10T07:31:50.340Z,0.62
2018-08-10T07:34:17.516Z,0.72
2018-08-10T07:36:44.699Z,0.80
2018-08-10T07:39:12.631Z,0.82
2018-08-10T07:41:41.101Z,0.70
2018-08-10T07:44:08.274Z,0.80
2018-08-10T07:46:36.299Z,0.60
2018-08-10T07:49:03.885Z,0.60
2018-08-10T07:51:32.048Z,0.88
2018-08-10T07:54:02.937Z,0.88
2018-08-10T07:56:30.380Z,0.70
2018-08-10T07:58:57.536Z,0.70
2018-08-10T08:01:24.660Z,0.70
2018-08-10T08:03:52.433Z,0.85
2018-08-10T08:06:21.542Z,0.80
2018-08-10T08:08:48.776Z,0.78
2018-08-10T08:11:16.226Z,0.78
2018-08-10T08:13:43.939Z,0.60
2018-08-10T08:16:11.751Z,0.78
2018-08-10T08:18:38.920Z,0.95
2018-08-10T08:21:08.116Z,0.90
2018-08-10T08:23:35.761Z,0.85
2018-08-10T08:26:03.642Z,0.70
2018-08-10T08:28:31.517Z,1.10
2018-08-10T08:31:00.897Z,1.02
2018-08-10T08:33:29.012Z,0.82
2018-08-10T08:35:57.417Z,0.90
2018-08-10T08:38:31.364Z,0.90
2018-08-10T08:40:59.138Z,0.70
2018-08-10T08:43:42.144Z,0.85
2018-08-10T08:46:10.468Z,0.88
2018-08-10T08:48:46.729Z,0.70
2018-08-10T08:51:19.479Z,1.00
2018-08-10T08:53:48.619Z,0.95
2018-08-10T08:56:17.960Z,0.80
2018-08-10T08:58:46.862Z,0.70
2018-08-10T09:01:15.681Z,0.82
2018-08-10T09:04:25.012Z,0.70
2018-08-10T09:06:52.184Z,0.80
2018-08-10T09:09:31.057Z,0.90
2018-08-10T09:11:58.520Z,0.80
2018-08-10T09:14:44.757Z,0.80
2018-08-10T09:17:13.070Z,0.90
2018-08-10T09:19:41.477Z,0.80
2018-08-10T09:22:09.185Z,0.62
2018-08-10T09:24:36.749Z,0.78
2018-08-10T09:27:04.297Z,0.70
2018-08-10T09:29:33.064Z,0.70
2018-08-10T09:32:00.535Z,0.70
2018-08-10T09:34:28.726Z,0.78
2018-08-10T09:36:55.873Z,0.80
2018-08-10T09:39:23.841Z,0.80
2018-08-10T09:41:51.646Z,0.60
2018-08-10T09:44:19.320Z,0.82
2018-08-10T09:46:47.039Z,0.72
2018-08-10T09:49:14.272Z,1.30
2018-08-10T09:51:41.696Z,0.88
2018-08-10T09:54:08.864Z,0.78
2018-08-10T09:56:37.531Z,0.80
2018-08-10T09:59:04.721Z,0.75
2018-08-10T10:02:35.965Z,0.80
2018-08-10T10:05:03.433Z,0.75
2018-08-10T10:07:30.954Z,0.80
2018-08-10T10:09:59.353Z,0.60
2018-08-10T10:12:26.720Z,0.70
2018-08-10T10:14:54.377Z,0.78
2018-08-10T10:17:21.598Z,0.75
2018-08-10T10:19:49.061Z,0.70
2018-08-10T10:22:16.234Z,1.07
2018-08-10T10:24:44.109Z,0.55
2018-08-10T10:27:15.190Z,1.00
2018-08-10T10:29:42.404Z,0.65
2018-08-10T10:32:09.853Z,0.70
2018-08-10T10:34:36.997Z,0.90
2018-08-10T10:37:05.118Z,0.57
2018-08-10T10:39:32.537Z,0.75
2018-08-10T10:41:59.738Z,0.72
2018-08-10T10:44:27.217Z,0.60
2018-08-10T10:46:54.371Z,0.60
2018-08-10T10:49:21.606Z,0.80
2018-08-10T10:51:48.776Z,0.70
2018-08-10T10:54:16.633Z,0.70
2018-08-10T10:56:44.253Z,0.60
2018-08-10T10:59:11.587Z,0.65
2018-08-10T11:01:38.963Z,1.02
2018-08-10T11:04:06.136Z,0.65
2018-08-10T11:06:33.371Z,0.60
2018-08-10T11:09:01.586Z,0.75
2018-08-10T11:11:29.033Z,0.90
2018-08-10T11:13:57.136Z,0.70
2018-08-10T11:16:25.276Z,0.80
2018-08-10T11:18:52.466Z,0.60
2018-08-10T11:21:19.856Z,0.70
2018-08-10T11:23:47.685Z,0.80
2018-08-10T11:26:16.862Z,0.80
2018-08-10T11:28:44.973Z,0.80
2018-08-10T11:31:12.262Z,0.80
2018-08-10T11:33:41.476Z,0.82
2018-08-10T11:36:09.813Z,0.80
2018-08-10T11:38:38.041Z,0.80
2018-08-10T11:41:05.196Z,0.80
2018-08-10T11:43:32.705Z,0.82
2018-08-10T11:46:00.092Z,0.70
2018-08-10T11:48:27.977Z,0.70
2018-08-10T11:50:56.144Z,0.80
2018-08-10T11:53:24.018Z,0.80
2018-08-10T11:55:51.469Z,0.70
2018-08-10T11:58:19.017Z,0.82
2018-08-10T12:00:46.480Z,0.68
2018-08-10T12:03:14.921Z,0.80
2018-08-10T12:05:42.455Z,0.70
2018-08-10T12:08:09.875Z,0.80
2018-08-10T12:10:37.053Z,0.85
2018-08-10T12:13:05.003Z,1.05
2018-08-10T12:15:32.148Z,0.78
2018-08-10T12:17:59.382Z,1.00
2018-08-10T12:20:27.205Z,0.70
2018-08-10T12:22:54.860Z,0.90
2018-08-10T12:25:22.008Z,0.70
2018-08-10T12:27:49.959Z,0.88
2018-08-10T12:30:18.300Z,0.75
2018-08-10T12:32:45.407Z,0.72
2018-08-10T12:35:12.957Z,0.70
2018-08-10T12:37:42.348Z,0.70
2018-08-10T12:40:10.231Z,0.80
2018-08-10T12:42:38.313Z,0.75
2018-08-10T12:45:05.973Z,0.90
2018-08-10T12:47:33.915Z,0.80
2018-08-10T12:50:50.616Z,0.70
2018-08-10T12:53:17.735Z,0.75
2018-08-10T12:55:45.478Z,0.70
2018-08-10T12:58:13.154Z,0.80
2018-08-10T13:00:41.063Z,0.70
2018-08-10T13:03:08.209Z,0.80
2018-08-10T13:05:36.217Z,0.90
2018-08-10T13:08:03.732Z,0.80
2018-08-10T13:10:31.198Z,0.90
2018-08-10T13:12:59.064Z,0.65
2018-08-10T13:15:26.524Z,0.70
2018-08-10T13:17:54.721Z,0.90
2018-08-10T13:20:22.262Z,0.98
2018-08-10T13:22:50.127Z,0.78
2018-08-10T13:25:18.900Z,0.78
2018-08-10T13:27:46.365Z,0.70
2018-08-10T13:30:13.561Z,0.80
2018-08-10T13:32:41.064Z,0.70
2018-08-10T13:35:08.748Z,0.80
2018-08-10T13:37:36.750Z,0.85
2018-08-10T13:40:04.700Z,1.10
2018-08-10T13:42:32.425Z,0.88
2018-08-10T13:45:00.003Z,0.90
2018-08-10T13:47:28.035Z,0.90
2018-08-10T13:49:55.524Z,1.00
2018-08-10T13:52:22.757Z,0.70
2018-08-10T13:54:49.996Z,1.02
2018-08-10T13:57:18.033Z,0.80
2018-08-10T13:59:45.484Z,0.65
2018-08-10T14:02:12.657Z,0.80
2018-08-10T14:04:40.681Z,0.90
2018-08-10T14:07:08.469Z,1.00
2018-08-10T14:09:36.430Z,0.68
2018-08-10T14:12:04.800Z,1.00
2018-08-10T14:14:32.221Z,0.90
2018-08-10T14:17:00.421Z,0.95
2018-08-10T14:19:28.285Z,1.17
2018-08-10T14:21:56.171Z,0.80
2018-08-10T14:24:23.692Z,0.80
2018-08-10T14:26:51.093Z,0.90
2018-08-10T14:29:19.284Z,1.00
2018-08-10T14:31:46.860Z,0.93
2018-08-10T14:34:14.047Z,1.00
2018-08-10T14:36:41.291Z,0.80
2018-08-10T14:39:10.098Z,1.07
2018-08-10T14:41:37.967Z,0.90
2018-08-10T14:44:05.732Z,0.90
2018-08-10T14:46:33.908Z,1.40
2018-08-10T14:49:01.396Z,1.00
2018-08-10T14:51:29.324Z,1.00
2018-08-10T14:53:56.737Z,1.92
2018-08-10T14:56:24.649Z,0.98
2018-08-10T14:58:52.144Z,0.82
2018-08-10T15:01:20.109Z,1.07
2018-08-10T15:03:47.724Z,0.80
2018-08-10T15:06:14.861Z,1.25
2018-08-10T15:08:43.392Z,4.45
2018-08-10T15:11:10.596Z,2.20
2018-08-10T15:13:38.027Z,3.85
2018-08-10T15:16:05.460Z,1.30
2018-08-10T15:18:33.005Z,0.75
2018-08-10T15:21:03.842Z,1.07
2018-08-10T15:23:31.597Z,1.02
2018-08-10T15:26:00.080Z,1.00
2018-08-10T15:28:27.972Z,1.20
2018-08-10T15:30:55.504Z,1.07
2018-08-10T15:33:23.103Z,0.72
2018-08-10T15:35:50.272Z,0.78
2018-08-10T15:38:18.442Z,0.88
2018-08-10T15:40:46.625Z,0.98
2018-08-10T15:43:14.128Z,1.00
2018-08-10T15:45:42.133Z,0.95
2018-08-10T15:48:10.241Z,0.85
2018-08-10T15:50:38.188Z,0.90
2018-08-10T15:53:05.544Z,0.80
2018-08-10T15:55:32.993Z,1.17
2018-08-10T15:58:00.619Z,1.10
2018-08-10T16:00:27.788Z,0.82
2018-08-10T16:02:55.553Z,1.00
2018-08-10T16:05:22.941Z,0.88
2018-08-10T16:07:52.012Z,1.30
2018-08-10T16:10:20.010Z,0.90
2018-08-10T16:12:52.449Z,0.85
2018-08-10T16:15:19.701Z,0.70
2018-08-10T16:17:47.236Z,0.98
2018-08-10T16:20:17.395Z,0.82
2018-08-10T16:22:45.216Z,0.88
2018-08-10T16:25:12.865Z,0.88
2018-08-10T16:27:42.073Z,0.95
2018-08-10T16:30:11.103Z,0.72
2018-08-10T16:32:39.892Z,1.00
2018-08-10T16:35:08.409Z,0.82
2018-08-10T16:37:35.904Z,0.82
2018-08-10T16:40:04.280Z,0.80
2018-08-10T16:42:33.272Z,1.00
2018-08-10T16:45:00.475Z,1.00
2018-08-10T16:47:27.664Z,0.70
2018-08-10T16:49:54.826Z,1.02
2018-08-10T16:52:22.591Z,0.90
2018-08-10T16:54:50.218Z,0.70
2018-08-10T16:57:17.422Z,0.78
2018-08-10T16:59:44.856Z,0.98
2018-08-10T17:02:12.096Z,0.80
2018-08-10T17:04:39.625Z,0.85
2018-08-10T17:07:07.128Z,0.82
2018-08-10T17:09:35.164Z,0.90
2018-08-10T17:12:02.348Z,1.00
2018-08-10T17:14:29.784Z,0.80
2018-08-10T17:16:57.012Z,0.80
2018-08-10T17:19:24.530Z,0.80
2018-08-10T17:21:52.708Z,1.20
2018-08-10T17:24:21.064Z,1.20
2018-08-10T17:26:48.209Z,0.90
2018-08-10T17:29:15.604Z,1.95
2018-08-10T17:31:44.340Z,0.90
2018-08-10T17:34:11.624Z,0.90
2018-08-10T17:36:38.815Z,1.05
2018-08-10T17:39:09.122Z,1.02
2018-08-10T17:41:36.537Z,2.75
2018-08-10T17:44:04.046Z,1.20
2018-08-10T17:46:31.460Z,1.00
2018-08-10T17:48:58.955Z,1.05
2018-08-10T17:51:26.809Z,1.12
2018-08-10T17:53:54.338Z,1.00
2018-08-10T17:56:22.556Z,0.90
2018-08-10T17:58:50.060Z,0.95
2018-08-10T18:01:17.272Z,1.27
2018-08-10T18:03:45.085Z,1.00
2018-08-10T18:06:13.408Z,0.90
2018-08-10T18:08:40.576Z,0.93
2018-08-10T18:11:07.816Z,1.10
2018-08-10T18:13:35.009Z,1.02
2018-08-10T18:16:02.284Z,1.10
2018-08-10T18:18:31.613Z,0.90
2018-08-10T18:20:58.863Z,0.80
2018-08-10T18:23:26.491Z,0.70
2018-08-10T18:25:54.820Z,0.90
2018-08-10T18:28:22.321Z,0.80
2018-08-10T18:30:50.134Z,0.90
2018-08-10T18:33:17.381Z,1.20
2018-08-10T18:35:44.752Z,1.10
2018-08-10T18:38:13.007Z,0.72
2018-08-10T18:40:40.239Z,0.90
2018-08-10T18:43:08.629Z,1.25
2018-08-10T18:45:36.188Z,0.80
2018-08-10T18:48:03.951Z,0.80
2018-08-10T18:50:31.470Z,1.00
2018-08-10T18:52:58.620Z,0.98
2018-08-10T18:55:26.097Z,1.10
2018-08-10T18:57:54.441Z,1.02
2018-08-10T19:00:26.529Z,1.20
2018-08-10T19:02:54.103Z,1.30
2018-08-10T19:05:21.564Z,1.27
2018-08-10T19:07:49.007Z,0.90
2018-08-10T19:10:17.880Z,1.00
2018-08-10T19:12:45.667Z,1.10
2018-08-10T19:15:13.740Z,0.98
2018-08-10T19:17:41.539Z,0.85
2018-08-10T19:20:09.246Z,0.95
2018-08-10T19:22:36.516Z,0.82
2018-08-10T19:25:05.233Z,0.90
2018-08-10T19:27:32.464Z,0.90
2018-08-10T19:29:59.617Z,0.90
2018-08-10T19:32:27.317Z,0.90
2018-08-10T19:34:54.536Z,0.90
2018-08-10T19:37:21.736Z,0.90
2018-08-10T19:39:49.215Z,0.93
2018-08-10T19:42:16.608Z,0.90
2018-08-10T19:44:43.904Z,1.00
2018-08-10T19:47:11.082Z,0.85
2018-08-10T19:49:38.565Z,0.78
2018-08-10T19:52:05.816Z,0.80
2018-08-10T19:54:34.187Z,0.82
2018-08-10T19:57:01.814Z,0.80
2018-08-10T19:59:29.185Z,1.10
2018-08-10T20:01:57.104Z,1.00
2018-08-10T20:04:24.803Z,0.72
2018-08-10T20:06:51.968Z,0.80
2018-08-10T20:09:20.809Z,0.90
2018-08-10T20:11:48.067Z,0.90
2018-08-10T20:14:15.629Z,0.80
2018-08-10T20:16:43.584Z,0.95
2018-08-10T20:19:11.824Z,0.75
2018-08-10T20:21:39.483Z,1.10
2018-08-10T20:24:06.677Z,1.00
2018-08-10T20:26:34.540Z,0.90
2018-08-10T20:29:02.477Z,0.90
2018-08-10T20:31:31.030Z,0.90
2018-08-10T20:33:58.424Z,1.10
2018-08-10T20:36:26.672Z,1.05
2018-08-10T20:38:53.945Z,1.00
2018-08-10T20:41:21.152Z,0.95
2018-08-10T20:43:49.468Z,1.13
2018-08-10T20:46:18.543Z,1.02
2018-08-10T20:48:46.126Z,1.12
2018-08-10T20:51:13.724Z,1.22
2018-08-10T20:53:41.177Z,0.98
2018-08-10T20:56:08.673Z,1.10
2018-08-10T20:58:36.111Z,1.00
2018-08-10T21:01:05.617Z,1.10
2018-08-10T21:03:32.769Z,1.10
2018-08-10T21:06:02.200Z,1.10
2018-08-10T21:08:30.066Z,1.03
2018-08-10T21:10:57.489Z,1.10
2018-08-10T21:13:25.045Z,1.00
2018-08-10T21:15:52.200Z,1.43
2018-08-10T21:18:19.305Z,1.20
2018-08-10T21:20:47.176Z,0.98
2018-08-10T21:23:15.249Z,1.00
2018-08-10T21:25:42.796Z,1.10
2018-08-10T21:28:09.976Z,1.00
2018-08-10T21:30:37.420Z,1.13
2018-08-10T21:33:04.588Z,1.60
2018-08-10T21:35:31.701Z,1.40
2018-08-10T21:37:59.096Z,1.13
2018-08-10T21:40:27.888Z,0.90
2018-08-10T21:42:55.066Z,1.13
2018-08-10T21:45:22.573Z,0.97
2018-08-10T21:47:50.054Z,1.60
2018-08-10T21:50:17.484Z,1.27
2018-08-10T21:52:45.244Z,1.27
2018-08-10T21:55:12.774Z,1.10
2018-08-10T21:57:40.568Z,1.00
2018-08-10T22:00:13.540Z,1.20
2018-08-10T22:02:40.962Z,1.30
2018-08-10T22:05:08.872Z,1.10
2018-08-10T22:07:36.328Z,1.40
2018-08-10T22:10:03.886Z,1.10
2018-08-10T22:12:31.100Z,1.47
2018-08-10T22:16:08.164Z,1.57
2018-08-10T22:18:41.036Z,1.40
2018-08-10T22:21:08.898Z,1.43
2018-08-10T22:23:36.453Z,1.20
2018-08-10T22:26:03.619Z,1.13
2018-08-10T22:28:31.433Z,1.40
2018-08-10T22:30:58.592Z,1.57
2018-08-10T22:33:26.185Z,1.47
2018-08-10T22:35:54.560Z,1.40
2018-08-10T22:38:22.058Z,1.43
2018-08-10T22:40:49.204Z,1.60
2018-08-10T22:43:16.624Z,1.50
2018-08-10T22:45:44.490Z,1.27
2018-08-10T22:48:11.966Z,1.87
2018-08-10T22:50:39.917Z,1.93
2018-08-10T22:53:07.581Z,2.00
2018-08-10T22:55:36.691Z,1.60
2018-08-10T22:58:04.541Z,1.60
2018-08-10T23:00:32.399Z,1.60
2018-08-10T23:02:59.905Z,1.70
2018-08-10T23:05:28.340Z,1.80
2018-08-10T23:07:55.946Z,1.67
2018-08-10T23:10:24.453Z,1.77
2018-08-10T23:12:51.872Z,1.50
2018-08-10T23:15:19.517Z,1.50
2018-08-10T23:17:47.048Z,1.20
2018-08-10T23:20:14.849Z,1.50
2018-08-10T23:22:42.656Z,1.40
2018-08-10T23:25:12.010Z,1.60
2018-08-10T23:27:39.749Z,1.47
2018-08-10T23:30:10.235Z,1.40
2018-08-10T23:32:40.125Z,1.40
2018-08-10T23:35:08.172Z,1.50
2018-08-10T23:37:35.861Z,1.60
2018-08-10T23:40:04.563Z,1.50
2018-08-10T23:42:32.210Z,1.60
2018-08-10T23:44:59.720Z,1.80
2018-08-10T23:47:26.928Z,1.50
2018-08-10T23:49:54.136Z,1.70
2018-08-10T23:52:23.650Z,1.60
2018-08-10T23:54:51.224Z,1.47
2018-08-10T23:57:18.703Z,1.77
2018-08-10T23:59:46.133Z,1.80
